Avery, Arkansas
Current Conditions -  °F | °C
As of 6:53 AM on Thursday 18 Dec 2014 (Local Time) from KLLQ Reporting Station
Overcast Overcast  
Wind Chill:   Ceiling: 400
Heat Index:   Visibility: 7mi
Dew Point:   Wind: 6mph
Humidity: 89%   Direction: 110°ESE
Pressure: 30.2"   Gusts: NA
Location:  33.9283°N, 91.468°W
Report Text: KLLQ 181253Z AUTO 11005KT 7SM BKN004 OVC036 05/03 A3020 RMK AO2 RAB12E32 SLP228 P0001 T00500033
Loading
Personal Weather Stations






























Interactive Weather Map New forecast layout! Learn more

10-Day Weather Forecast

Advertisements
Track Severe Weather on mobile